createdAt,value
2018-04-12T00:00:57.496Z,22.62
2018-04-12T00:01:57.491Z,22.61
2018-04-12T00:02:57.485Z,22.58
2018-04-12T00:03:57.481Z,22.63
2018-04-12T00:04:57.479Z,22.68
2018-04-12T00:05:57.467Z,22.63
2018-04-12T00:06:57.460Z,22.65
2018-04-12T00:07:57.459Z,22.67
2018-04-12T00:08:57.450Z,22.53
2018-04-12T00:09:57.441Z,22.59
2018-04-12T00:10:57.435Z,22.65
2018-04-12T00:11:57.431Z,22.68
2018-04-12T00:12:57.426Z,22.65
2018-04-12T00:13:57.416Z,22.59
2018-04-12T00:14:57.413Z,22.62
2018-04-12T00:15:57.412Z,22.68
2018-04-12T00:16:57.405Z,22.59
2018-04-12T00:17:57.400Z,22.63
2018-04-12T00:18:57.390Z,22.68
2018-04-12T00:19:57.385Z,22.63
2018-04-12T00:20:57.410Z,22.65
2018-04-12T00:21:57.371Z,22.58
2018-04-12T00:22:57.366Z,22.67
2018-04-12T00:23:57.363Z,22.59
2018-04-12T00:24:57.353Z,22.61
2018-04-12T00:25:57.353Z,22.62
2018-04-12T00:26:57.343Z,22.63
2018-04-12T00:27:57.340Z,22.68
2018-04-12T00:28:57.331Z,22.70
2018-04-12T00:29:57.323Z,22.67
2018-04-12T00:30:57.319Z,22.67
2018-04-12T00:31:57.313Z,22.65
2018-04-12T00:32:57.316Z,22.67
2018-04-12T00:33:57.305Z,22.71
2018-04-12T00:34:57.295Z,22.67
2018-04-12T00:35:57.291Z,22.71
2018-04-12T00:36:57.285Z,22.61
2018-04-12T00:37:57.280Z,22.71
2018-04-12T00:38:57.273Z,22.61
2018-04-12T00:39:57.267Z,22.73
2018-04-12T00:40:57.277Z,22.71
2018-04-12T00:41:57.256Z,22.71
2018-04-12T00:42:57.249Z,22.74
2018-04-12T00:43:57.259Z,22.68
2018-04-12T00:44:57.240Z,22.63
2018-04-12T00:45:57.233Z,22.59
2018-04-12T00:46:57.226Z,22.71
2018-04-12T00:47:57.225Z,22.68
2018-04-12T00:48:57.218Z,22.71
2018-04-12T00:49:57.212Z,22.63
2018-04-12T00:50:57.255Z,22.59
2018-04-12T00:51:57.203Z,22.62
2018-04-12T00:52:57.192Z,22.70
2018-04-12T00:53:57.191Z,22.58
2018-04-12T00:54:57.182Z,22.67
2018-04-12T00:55:57.177Z,22.67
2018-04-12T00:56:57.164Z,22.56
2018-04-12T00:57:57.160Z,22.61
2018-04-12T00:58:57.155Z,22.65
2018-04-12T00:59:57.155Z,22.62
2018-04-12T01:00:57.159Z,22.61
2018-04-12T01:01:57.140Z,22.62
2018-04-12T01:02:57.135Z,22.67
2018-04-12T01:03:57.128Z,22.63
2018-04-12T01:04:57.126Z,22.61
2018-04-12T01:05:57.116Z,22.61
2018-04-12T01:06:57.113Z,22.58
2018-04-12T01:07:57.106Z,22.61
2018-04-12T01:08:57.105Z,22.67
2018-04-12T01:09:57.096Z,22.58
2018-04-12T01:10:57.089Z,22.65
2018-04-12T01:11:57.083Z,22.56
2018-04-12T01:12:57.087Z,22.59
2018-04-12T01:13:57.073Z,22.59
2018-04-12T01:14:57.065Z,22.58
2018-04-12T01:15:57.060Z,22.63
2018-04-12T01:16:57.062Z,22.58
2018-04-12T01:17:57.047Z,22.51
2018-04-12T01:18:57.042Z,22.59
2018-04-12T01:19:57.035Z,22.55
2018-04-12T01:20:57.030Z,22.53
2018-04-12T01:21:57.027Z,22.65
2018-04-12T01:22:57.017Z,22.55
2018-04-12T01:23:57.012Z,22.53
2018-04-12T01:24:57.009Z,22.63
2018-04-12T01:25:56.999Z,22.52
2018-04-12T01:26:56.993Z,22.46
2018-04-12T01:27:56.989Z,22.52
2018-04-12T01:28:56.985Z,22.49
2018-04-12T01:29:56.975Z,22.49
2018-04-12T01:30:56.970Z,22.55
2018-04-12T01:31:56.965Z,22.55
2018-04-12T01:32:56.961Z,22.51
2018-04-12T01:33:56.953Z,22.59
2018-04-12T01:34:56.947Z,22.51
2018-04-12T01:35:56.942Z,22.47
2018-04-12T01:36:56.936Z,22.56
2018-04-12T01:37:56.931Z,22.53
2018-04-12T01:38:56.925Z,22.53
2018-04-12T01:39:56.922Z,22.47
2018-04-12T01:40:56.922Z,22.55
2018-04-12T01:41:56.905Z,22.51
2018-04-12T01:42:56.904Z,22.63
2018-04-12T01:43:56.895Z,22.49
2018-04-12T01:44:56.888Z,22.65
2018-04-12T01:45:56.882Z,22.59
2018-04-12T01:46:56.879Z,22.47
2018-04-12T01:47:56.871Z,22.61
2018-04-12T01:48:56.871Z,22.46
2018-04-12T01:49:56.860Z,22.63
2018-04-12T01:50:56.854Z,22.51
2018-04-12T01:51:56.847Z,22.53
2018-04-12T01:52:56.839Z,22.43
2018-04-12T01:53:56.837Z,22.51
2018-04-12T01:54:56.833Z,22.61
2018-04-12T01:55:56.835Z,22.55
2018-04-12T01:56:56.825Z,22.51
2018-04-12T01:57:56.811Z,22.53
2018-04-12T01:58:56.810Z,22.49
2018-04-12T01:59:56.801Z,22.62
2018-04-12T02:00:56.794Z,22.47
2018-04-12T02:01:56.792Z,22.61
2018-04-12T02:02:56.786Z,22.53
2018-04-12T02:03:56.776Z,22.58
2018-04-12T02:04:56.775Z,22.43
2018-04-12T02:05:56.769Z,22.51
2018-04-12T02:06:56.757Z,22.51
2018-04-12T02:07:56.753Z,22.47
2018-04-12T02:08:56.754Z,22.55
2018-04-12T02:09:56.748Z,22.46
2018-04-12T02:10:56.743Z,22.58
2018-04-12T02:11:56.733Z,22.52
2018-04-12T02:12:56.730Z,22.52
2018-04-12T02:13:56.721Z,22.55
2018-04-12T02:14:56.712Z,22.44
2018-04-12T02:15:56.708Z,22.41
2018-04-12T02:16:56.704Z,22.44
2018-04-12T02:17:56.701Z,22.56
2018-04-12T02:18:56.693Z,22.49
2018-04-12T02:19:56.683Z,22.55
2018-04-12T02:20:56.680Z,22.55
2018-04-12T02:21:56.674Z,22.58
2018-04-12T02:22:56.667Z,22.51
2018-04-12T02:23:56.666Z,22.47
2018-04-12T02:24:56.654Z,22.47
2018-04-12T02:25:56.653Z,22.52
2018-04-12T02:26:56.642Z,22.53
2018-04-12T02:27:56.636Z,22.49
2018-04-12T02:28:56.665Z,22.44
2018-04-12T02:29:56.626Z,22.53
2018-04-12T02:30:56.620Z,22.55
2018-04-12T02:31:56.614Z,22.46
2018-04-12T02:32:56.610Z,22.44
2018-04-12T02:33:56.613Z,22.41
2018-04-12T02:34:56.627Z,22.51
2018-04-12T02:35:56.589Z,22.55
2018-04-12T02:36:56.591Z,22.56
2018-04-12T02:37:56.581Z,22.53
2018-04-12T02:38:56.573Z,22.47
2018-04-12T02:39:56.568Z,22.52
2018-04-12T02:40:56.566Z,22.47
2018-04-12T02:41:56.560Z,22.46
2018-04-12T02:42:56.550Z,22.51
2018-04-12T02:43:56.546Z,22.51
2018-04-12T02:44:56.538Z,22.58
2018-04-12T02:45:56.532Z,22.51
2018-04-12T02:46:56.527Z,22.58
2018-04-12T02:47:56.525Z,22.52
2018-04-12T02:48:56.517Z,22.49
2018-04-12T02:49:56.514Z,22.55
2018-04-12T02:50:56.504Z,22.59
2018-04-12T02:51:56.501Z,22.55
2018-04-12T02:52:56.494Z,22.44
2018-04-12T02:53:56.488Z,22.51
2018-04-12T02:54:56.489Z,22.49
2018-04-12T02:55:56.474Z,22.55
2018-04-12T02:56:56.509Z,22.46
2018-04-12T02:57:56.490Z,22.47
2018-04-12T02:58:56.485Z,22.49
2018-04-12T02:59:56.449Z,22.49
2018-04-12T03:00:56.447Z,22.44
2018-04-12T03:01:56.457Z,22.49
2018-04-12T03:02:56.433Z,22.56
2018-04-12T03:03:56.430Z,22.51
2018-04-12T03:04:56.422Z,22.49
2018-04-12T03:05:56.424Z,22.47
2018-04-12T03:06:56.409Z,22.51
2018-04-12T03:07:56.406Z,22.53
2018-04-12T03:08:56.397Z,22.41
2018-04-12T03:09:56.393Z,22.46
2018-04-12T03:10:56.388Z,22.43
2018-04-12T03:11:56.382Z,22.41
2018-04-12T03:12:56.379Z,22.46
2018-04-12T03:13:56.369Z,22.51
2018-04-12T03:14:56.362Z,22.55
2018-04-12T03:15:56.359Z,22.52
2018-04-12T03:16:56.350Z,22.38
2018-04-12T03:17:56.346Z,22.52
2018-04-12T03:18:56.336Z,22.52
2018-04-12T03:19:56.335Z,22.52
2018-04-12T03:20:56.324Z,22.43
2018-04-12T03:21:56.322Z,22.52
2018-04-12T03:22:56.315Z,22.38
2018-04-12T03:23:56.313Z,22.43
2018-04-12T03:24:56.309Z,22.40
2018-04-12T03:25:56.301Z,22.43
2018-04-12T03:26:56.292Z,22.44
2018-04-12T03:27:56.286Z,22.46
2018-04-12T03:28:56.279Z,22.43
2018-04-12T03:29:56.287Z,22.43
2018-04-12T03:30:56.270Z,22.41
2018-04-12T03:31:56.267Z,22.44
2018-04-12T03:32:56.260Z,22.46
2018-04-12T03:33:56.253Z,22.46
2018-04-12T03:34:56.243Z,22.40
2018-04-12T03:35:56.232Z,22.44
2018-04-12T03:36:56.234Z,22.44
2018-04-12T03:37:56.226Z,22.44
2018-04-12T03:38:56.219Z,22.44
2018-04-12T03:39:56.221Z,22.38
2018-04-12T03:40:56.212Z,22.43
2018-04-12T03:41:56.203Z,22.46
2018-04-12T03:42:56.196Z,22.44
2018-04-12T03:43:56.193Z,22.37
2018-04-12T03:44:56.186Z,22.51
2018-04-12T03:45:56.179Z,22.53
2018-04-12T03:46:56.177Z,22.37
2018-04-12T03:47:56.168Z,22.49
2018-04-12T03:48:56.164Z,22.51
2018-04-12T03:49:56.155Z,22.56
2018-04-12T03:50:56.149Z,22.52
2018-04-12T03:51:56.144Z,22.44
2018-04-12T03:52:56.140Z,22.44
2018-04-12T03:53:56.133Z,22.46
2018-04-12T03:54:56.125Z,22.53
2018-04-12T03:55:56.121Z,22.55
2018-04-12T03:56:56.122Z,22.47
2018-04-12T03:57:56.113Z,22.46
2018-04-12T03:58:56.099Z,22.52
2018-04-12T03:59:56.094Z,22.47
2018-04-12T04:00:56.087Z,22.46
2018-04-12T04:01:56.082Z,22.49
2018-04-12T04:02:56.077Z,22.53
2018-04-12T04:03:56.101Z,22.53
2018-04-12T04:04:56.059Z,22.51
2018-04-12T04:05:56.055Z,22.52
2018-04-12T04:06:56.045Z,22.51
2018-04-12T04:07:56.038Z,22.63
2018-04-12T04:08:56.032Z,22.44
2018-04-12T04:09:56.029Z,22.59
2018-04-12T04:10:56.018Z,22.53
2018-04-12T04:11:56.010Z,22.51
2018-04-12T04:12:56.006Z,22.52
2018-04-12T04:13:55.997Z,22.43
2018-04-12T04:14:55.988Z,22.44
2018-04-12T04:15:55.984Z,22.51
2018-04-12T04:16:55.982Z,22.63
2018-04-12T04:17:55.971Z,22.62
2018-04-12T04:18:55.960Z,22.59
2018-04-12T04:19:55.956Z,22.62
2018-04-12T04:20:55.946Z,22.62
2018-04-12T04:21:55.938Z,22.58
2018-04-12T04:22:55.934Z,22.59
2018-04-12T04:23:55.933Z,22.67
2018-04-12T04:24:55.919Z,22.61
2018-04-12T04:25:55.910Z,22.71
2018-04-12T04:26:55.904Z,22.70
2018-04-12T04:27:55.895Z,22.67
2018-04-12T04:28:55.889Z,22.70
2018-04-12T04:29:55.883Z,22.73
2018-04-12T04:30:55.876Z,22.73
2018-04-12T04:31:55.867Z,22.68
2018-04-12T04:32:55.861Z,22.73
2018-04-12T04:33:55.850Z,22.73
2018-04-12T04:34:55.844Z,22.76
2018-04-12T04:35:55.840Z,22.76
2018-04-12T04:36:55.834Z,22.80
2018-04-12T04:37:55.825Z,22.78
2018-04-12T04:38:55.815Z,22.81
2018-04-12T04:39:55.867Z,22.86
2018-04-12T04:40:55.800Z,22.78
2018-04-12T04:41:55.794Z,22.84
2018-04-12T04:42:55.786Z,22.81
2018-04-12T04:43:55.779Z,22.83
2018-04-12T04:44:55.777Z,22.74
2018-04-12T04:45:55.764Z,22.71
2018-04-12T04:46:55.753Z,22.77
2018-04-12T04:47:55.749Z,22.77
2018-04-12T04:48:55.742Z,22.76
2018-04-12T04:49:55.740Z,22.83
2018-04-12T04:50:55.728Z,22.73
2018-04-12T04:51:55.722Z,22.78
2018-04-12T04:52:55.713Z,22.77
2018-04-12T04:53:55.708Z,22.76
2018-04-12T04:54:55.706Z,22.78
2018-04-12T04:55:55.702Z,22.74
2018-04-12T04:56:55.694Z,22.70
2018-04-12T04:57:55.684Z,22.74
2018-04-12T04:58:55.665Z,22.70
2018-04-12T04:59:55.661Z,22.70
2018-04-12T05:00:55.667Z,22.73
2018-04-12T05:01:55.648Z,22.74
2018-04-12T05:02:55.645Z,22.78
2018-04-12T05:03:55.631Z,22.80
2018-04-12T05:04:55.623Z,22.81
2018-04-12T05:05:55.622Z,22.78
2018-04-12T05:06:55.609Z,22.80
2018-04-12T05:07:55.607Z,22.81
2018-04-12T05:08:55.594Z,22.78
2018-04-12T05:09:55.585Z,22.83
2018-04-12T05:10:55.581Z,22.73
2018-04-12T05:11:55.578Z,22.88
2018-04-12T05:12:55.565Z,22.73
2018-04-12T05:13:55.558Z,22.81
2018-04-12T05:14:55.556Z,22.81
2018-04-12T05:15:55.543Z,22.70
2018-04-12T05:16:55.536Z,22.81
2018-04-12T05:17:55.527Z,22.83
2018-04-12T05:18:55.520Z,22.74
2018-04-12T05:19:55.513Z,22.74
2018-04-12T05:20:55.507Z,22.71
2018-04-12T05:21:55.498Z,22.77
2018-04-12T05:22:55.491Z,22.80
2018-04-12T05:23:55.483Z,22.77
2018-04-12T05:24:55.476Z,22.78
2018-04-12T05:25:55.467Z,22.78
2018-04-12T05:26:55.464Z,22.76
2018-04-12T05:27:55.462Z,22.70
2018-04-12T05:28:55.445Z,22.73
2018-04-12T05:29:55.441Z,22.76
2018-04-12T05:30:55.431Z,22.76
2018-04-12T05:31:55.444Z,22.73
2018-04-12T05:32:55.422Z,22.68
2018-04-12T05:33:55.411Z,22.73
2018-04-12T05:34:55.418Z,22.76
2018-04-12T05:35:55.392Z,22.70
2018-04-12T05:36:55.390Z,22.68
2018-04-12T05:37:55.385Z,22.76
2018-04-12T05:38:55.370Z,22.76
2018-04-12T05:39:55.367Z,22.73
2018-04-12T05:40:55.369Z,22.76
2018-04-12T05:41:55.356Z,22.70
2018-04-12T05:42:55.344Z,22.78
2018-04-12T05:43:55.340Z,22.71
2018-04-12T05:44:55.328Z,22.73
2018-04-12T05:45:55.322Z,22.74
2018-04-12T05:46:55.314Z,22.77
2018-04-12T05:47:55.305Z,22.81
2018-04-12T05:48:55.309Z,22.76
2018-04-12T05:49:55.293Z,22.80
2018-04-12T05:50:55.285Z,22.77
2018-04-12T05:51:55.274Z,22.83
2018-04-12T05:52:55.279Z,22.80
2018-04-12T05:53:55.261Z,22.80
2018-04-12T05:54:55.251Z,22.83
2018-04-12T05:55:55.248Z,22.92
2018-04-12T05:56:55.241Z,22.89
2018-04-12T05:57:55.229Z,22.78
2018-04-12T05:58:55.221Z,22.86
2018-04-12T05:59:55.217Z,22.89
2018-04-12T06:00:55.216Z,22.86
2018-04-12T06:01:55.204Z,22.95
2018-04-12T06:02:55.198Z,22.92
2018-04-12T06:03:55.185Z,22.92
2018-04-12T06:04:55.178Z,22.93
2018-04-12T06:05:55.171Z,22.93
2018-04-12T06:06:55.165Z,22.98
2018-04-12T06:07:55.156Z,22.96
2018-04-12T06:08:55.151Z,23.04
2018-04-12T06:09:55.144Z,22.96
2018-04-12T06:10:55.134Z,23.01
2018-04-12T06:11:55.126Z,22.92
2018-04-12T06:12:55.120Z,23.02
2018-04-12T06:13:55.118Z,23.02
2018-04-12T06:14:55.113Z,22.99
2018-04-12T06:15:55.099Z,22.99
2018-04-12T06:16:55.094Z,23.04
2018-04-12T06:17:55.081Z,23.11
2018-04-12T06:18:55.074Z,23.11
2018-04-12T06:19:55.072Z,23.11
2018-04-12T06:20:55.069Z,23.16
2018-04-12T06:21:55.056Z,23.17
2018-04-12T06:22:55.047Z,23.14
2018-04-12T06:23:55.040Z,23.13
2018-04-12T06:24:55.035Z,23.11
2018-04-12T06:25:55.025Z,23.20
2018-04-12T06:26:55.021Z,23.16
2018-04-12T06:27:55.010Z,23.10
2018-04-12T06:28:55.002Z,23.11
2018-04-12T06:29:54.997Z,23.07
2018-04-12T06:30:54.987Z,23.14
2018-04-12T06:31:54.983Z,23.11
2018-04-12T06:32:54.978Z,23.11
2018-04-12T06:33:55.016Z,23.11
2018-04-12T06:34:54.963Z,23.08
2018-04-12T06:35:54.971Z,23.10
2018-04-12T06:36:54.943Z,23.10
2018-04-12T06:37:54.937Z,23.08
2018-04-12T06:38:54.929Z,23.18
2018-04-12T06:39:54.935Z,23.13
2018-04-12T06:40:54.915Z,23.16
2018-04-12T06:41:54.908Z,23.08
2018-04-12T06:42:54.900Z,23.13
2018-04-12T06:43:54.892Z,23.16
2018-04-12T06:44:54.882Z,23.21
2018-04-12T06:45:54.880Z,23.13
2018-04-12T06:46:54.871Z,23.20
2018-04-12T06:47:54.866Z,23.21
2018-04-12T06:48:54.856Z,23.28
2018-04-12T06:49:54.849Z,23.33
2018-04-12T06:50:54.844Z,23.26
2018-04-12T06:51:54.837Z,23.39
2018-04-12T06:52:54.829Z,23.29
2018-04-12T06:53:54.821Z,23.34
2018-04-12T06:54:54.812Z,23.45
2018-04-12T06:55:54.806Z,23.45
2018-04-12T06:56:54.797Z,23.47
2018-04-12T06:57:54.792Z,23.44
2018-04-12T06:58:54.783Z,23.47
2018-04-12T06:59:54.775Z,23.54
2018-04-12T07:00:54.768Z,23.52
2018-04-12T07:01:54.767Z,23.54
2018-04-12T07:02:54.752Z,23.62
2018-04-12T07:03:54.745Z,23.64
2018-04-12T07:04:54.742Z,23.58
2018-04-12T07:05:54.737Z,23.67
2018-04-12T07:06:54.725Z,23.67
2018-04-12T07:07:54.718Z,23.70
2018-04-12T07:08:54.710Z,23.74
2018-04-12T07:09:54.708Z,23.67
2018-04-12T07:10:54.699Z,23.66
2018-04-12T07:11:54.690Z,23.64
2018-04-12T07:12:54.679Z,23.73
2018-04-12T07:13:54.675Z,23.67
2018-04-12T07:14:54.670Z,23.70
2018-04-12T07:15:54.660Z,23.74
2018-04-12T07:16:54.654Z,23.82
2018-04-12T07:17:54.649Z,23.79
2018-04-12T07:18:54.641Z,23.86
2018-04-12T07:19:54.634Z,23.85
2018-04-12T07:20:54.626Z,23.82
2018-04-12T07:21:54.621Z,23.86
2018-04-12T07:22:54.612Z,23.94
2018-04-12T07:23:54.612Z,23.89
2018-04-12T07:24:54.606Z,23.92
2018-04-12T07:25:54.591Z,23.96
2018-04-12T07:26:54.582Z,23.92
2018-04-12T07:27:54.584Z,23.99
2018-04-12T07:28:54.573Z,23.94
2018-04-12T07:29:54.565Z,24.09
2018-04-12T07:30:54.556Z,24.07
2018-04-12T07:31:54.551Z,24.06
2018-04-12T07:32:54.547Z,24.14
2018-04-12T07:33:54.536Z,24.18
2018-04-12T07:34:54.535Z,24.18
2018-04-12T07:35:54.522Z,24.10
2018-04-12T07:36:54.518Z,24.18
2018-04-12T07:37:54.531Z,24.21
2018-04-12T07:38:54.504Z,24.19
2018-04-12T07:39:54.498Z,24.18
2018-04-12T07:40:54.490Z,24.29
2018-04-12T07:41:54.482Z,24.26
2018-04-12T07:42:54.481Z,24.29
2018-04-12T07:43:54.470Z,24.40
2018-04-12T07:44:54.464Z,24.34
2018-04-12T07:45:54.460Z,24.38
2018-04-12T07:46:54.449Z,24.43
2018-04-12T07:47:54.442Z,24.41
2018-04-12T07:48:54.440Z,24.44
2018-04-12T07:49:54.432Z,24.43
2018-04-12T07:50:54.429Z,24.47
2018-04-12T07:51:54.416Z,24.55
2018-04-12T07:52:54.407Z,24.59
2018-04-12T07:53:54.411Z,24.58
2018-04-12T07:54:54.401Z,24.61
2018-04-12T07:55:54.390Z,24.56
2018-04-12T07:56:54.385Z,24.65
2018-04-12T07:57:54.377Z,24.68
2018-04-12T07:58:54.371Z,24.68
2018-04-12T07:59:54.365Z,24.68
2018-04-12T08:00:54.357Z,24.68
2018-04-12T08:01:54.356Z,24.78
2018-04-12T08:02:54.345Z,24.78
2018-04-12T08:03:54.344Z,24.82
2018-04-12T08:04:54.332Z,24.88
2018-04-12T08:05:54.333Z,24.82
2018-04-12T08:06:54.321Z,24.85
2018-04-12T08:07:54.314Z,24.84
2018-04-12T08:08:54.311Z,24.89
2018-04-12T08:09:54.314Z,24.89
2018-04-12T08:10:54.294Z,24.85
2018-04-12T08:11:54.287Z,24.96
2018-04-12T08:12:54.281Z,24.85
2018-04-12T08:13:54.276Z,25.01
2018-04-12T08:14:54.269Z,24.99
2018-04-12T08:15:54.265Z,24.97
2018-04-12T08:16:54.258Z,25.00
2018-04-12T08:17:54.257Z,25.03
2018-04-12T08:18:54.247Z,25.06
2018-04-12T08:19:54.239Z,24.99
2018-04-12T08:20:54.233Z,25.01
2018-04-12T08:21:54.229Z,25.11
2018-04-12T08:22:54.216Z,25.07
2018-04-12T08:23:54.214Z,25.04
2018-04-12T08:24:54.216Z,25.14
2018-04-12T08:25:54.201Z,25.06
2018-04-12T08:26:54.194Z,25.18
2018-04-12T08:27:54.190Z,25.16
2018-04-12T08:28:54.218Z,25.18
2018-04-12T08:29:54.179Z,25.22
2018-04-12T08:30:54.169Z,25.19
2018-04-12T08:31:54.163Z,25.19
2018-04-12T08:32:54.162Z,25.26
2018-04-12T08:33:54.153Z,25.25
2018-04-12T08:34:54.150Z,25.25
2018-04-12T08:35:54.141Z,25.24
2018-04-12T08:36:54.142Z,25.29
2018-04-12T08:37:54.129Z,25.43
2018-04-12T08:38:54.124Z,25.34
2018-04-12T08:39:54.116Z,25.33
2018-04-12T08:40:54.112Z,25.46
2018-04-12T08:41:54.107Z,25.51
2018-04-12T08:42:54.098Z,25.52
2018-04-12T08:43:54.123Z,25.54
2018-04-12T08:44:54.088Z,25.51
2018-04-12T08:45:54.095Z,25.58
2018-04-12T08:46:54.080Z,25.59
2018-04-12T08:47:54.068Z,25.59
2018-04-12T08:48:54.065Z,25.56
2018-04-12T08:49:54.062Z,25.67
2018-04-12T08:50:54.053Z,25.61
2018-04-12T08:51:54.046Z,25.59
2018-04-12T08:52:54.043Z,25.66
2018-04-12T08:53:54.040Z,25.70
2018-04-12T08:54:54.028Z,25.73
2018-04-12T08:55:54.087Z,25.78
2018-04-12T08:56:54.023Z,25.81
2018-04-12T08:57:54.014Z,25.83
2018-04-12T08:58:54.008Z,25.80
2018-04-12T08:59:54.009Z,25.86
2018-04-12T09:00:53.996Z,25.81
2018-04-12T09:01:53.998Z,25.93
2018-04-12T09:02:53.988Z,25.92
2018-04-12T09:03:53.979Z,25.95
2018-04-12T09:04:53.976Z,26.01
2018-04-12T09:05:53.969Z,26.07
2018-04-12T09:06:53.959Z,26.04
2018-04-12T09:07:53.954Z,26.01
2018-04-12T09:08:53.954Z,26.11
2018-04-12T09:09:53.950Z,25.99
2018-04-12T09:10:53.949Z,26.03
2018-04-12T09:11:53.933Z,26.01
2018-04-12T09:12:53.931Z,26.04
2018-04-12T09:13:53.922Z,26.18
2018-04-12T09:14:53.916Z,26.16
2018-04-12T09:15:53.912Z,26.11
2018-04-12T09:16:53.908Z,26.18
2018-04-12T09:17:53.918Z,26.24
2018-04-12T09:18:53.899Z,26.26
2018-04-12T09:19:53.891Z,26.26
2018-04-12T09:20:53.889Z,26.27
2018-04-12T09:21:53.885Z,26.29
2018-04-12T09:22:53.874Z,26.36
2018-04-12T09:23:53.864Z,26.36
2018-04-12T09:24:53.861Z,26.33
2018-04-12T09:25:53.859Z,26.36
2018-04-12T09:26:53.853Z,26.41
2018-04-12T09:27:53.852Z,26.44
2018-04-12T09:28:53.848Z,26.44
2018-04-12T09:29:53.837Z,26.42
2018-04-12T09:30:53.832Z,26.44
2018-04-12T09:31:53.828Z,26.46
2018-04-12T09:32:53.822Z,26.51
2018-04-12T09:33:53.817Z,26.51
2018-04-12T09:34:53.813Z,26.48
2018-04-12T09:35:53.854Z,26.44
2018-04-12T09:36:53.806Z,26.44
2018-04-12T09:37:53.798Z,26.34
2018-04-12T09:38:53.790Z,26.29
2018-04-12T09:39:53.787Z,26.23
2018-04-12T09:40:53.781Z,26.18
2018-04-12T09:41:53.774Z,26.04
2018-04-12T09:42:53.776Z,26.07
2018-04-12T09:43:53.767Z,25.98
2018-04-12T09:44:53.758Z,25.93
2018-04-12T09:45:53.751Z,25.80
2018-04-12T09:46:53.747Z,25.83
2018-04-12T09:47:53.744Z,25.77
2018-04-12T09:48:53.741Z,25.70
2018-04-12T09:49:53.733Z,25.66
2018-04-12T09:50:53.730Z,25.56
2018-04-12T09:51:53.723Z,25.59
2018-04-12T09:52:53.716Z,25.56
2018-04-12T09:53:53.710Z,25.54
2018-04-12T09:54:53.703Z,25.44
2018-04-12T09:55:53.697Z,25.37
2018-04-12T09:56:53.693Z,25.34
2018-04-12T09:57:53.686Z,25.40
2018-04-12T09:58:53.685Z,25.29
2018-04-12T09:59:53.735Z,25.25
2018-04-12T10:00:53.670Z,25.26
2018-04-12T10:01:53.664Z,25.30
2018-04-12T10:02:53.658Z,25.21
2018-04-12T10:03:53.652Z,25.22
2018-04-12T10:04:53.651Z,25.19
2018-04-12T10:05:53.645Z,25.31
2018-04-12T10:06:53.638Z,25.26
2018-04-12T10:07:53.630Z,25.24
2018-04-12T10:08:53.673Z,25.31
2018-04-12T10:09:53.621Z,25.36
2018-04-12T10:10:53.613Z,25.41
2018-04-12T10:11:53.612Z,25.37
2018-04-12T10:12:53.601Z,25.36
2018-04-12T10:13:53.600Z,25.54
2018-04-12T10:14:53.591Z,25.46
2018-04-12T10:15:53.589Z,25.52
2018-04-12T10:16:53.582Z,25.52
2018-04-12T10:17:53.574Z,25.52
2018-04-12T10:18:53.569Z,25.46
2018-04-12T10:19:53.569Z,25.49
2018-04-12T10:20:53.555Z,25.54
2018-04-12T10:21:53.565Z,25.41
2018-04-12T10:22:53.550Z,25.49
2018-04-12T10:23:53.543Z,25.46
2018-04-12T10:24:53.533Z,25.40
2018-04-12T10:25:53.555Z,25.39
2018-04-12T10:26:53.527Z,25.36
2018-04-12T10:27:53.515Z,25.46
2018-04-12T10:28:53.510Z,25.36
2018-04-12T10:29:53.504Z,25.39
2018-04-12T10:30:53.502Z,25.36
2018-04-12T10:31:53.492Z,25.37
2018-04-12T10:32:53.487Z,25.33
2018-04-12T10:33:53.483Z,25.36
2018-04-12T10:34:53.474Z,25.37
2018-04-12T10:35:53.474Z,25.31
2018-04-12T10:36:53.467Z,25.36
2018-04-12T10:37:53.460Z,25.48
2018-04-12T10:38:53.452Z,25.48
2018-04-12T10:39:53.447Z,25.51
2018-04-12T10:40:53.442Z,25.39
2018-04-12T10:41:53.434Z,25.51
2018-04-12T10:42:53.430Z,25.49
2018-04-12T10:43:53.424Z,25.58
2018-04-12T10:44:53.419Z,25.56
2018-04-12T10:45:53.421Z,25.63
2018-04-12T10:46:53.412Z,25.58
2018-04-12T10:47:53.403Z,25.54
2018-04-12T10:48:53.395Z,25.61
2018-04-12T10:49:53.389Z,25.71
2018-04-12T10:50:53.381Z,25.62
2018-04-12T10:51:53.386Z,25.62
2018-04-12T10:52:53.371Z,25.70
2018-04-12T10:53:53.371Z,25.74
2018-04-12T10:54:53.362Z,25.68
2018-04-12T10:55:53.356Z,25.73
2018-04-12T10:56:53.351Z,25.74
2018-04-12T10:57:53.343Z,25.73
2018-04-12T10:58:53.338Z,25.78
2018-04-12T10:59:53.331Z,25.80
2018-04-12T11:00:53.327Z,25.77
2018-04-12T11:01:53.321Z,25.78
2018-04-12T11:02:53.314Z,25.85
2018-04-12T11:03:53.313Z,25.92
2018-04-12T11:04:53.307Z,25.89
2018-04-12T11:05:53.295Z,25.80
2018-04-12T11:06:53.293Z,25.73
2018-04-12T11:07:53.287Z,25.80
2018-04-12T11:08:53.284Z,25.71
2018-04-12T11:09:53.276Z,25.68
2018-04-12T11:10:53.274Z,25.62
2018-04-12T11:11:53.267Z,25.55
2018-04-12T11:12:53.260Z,25.62
2018-04-12T11:13:53.253Z,25.67
2018-04-12T11:14:53.250Z,25.66
2018-04-12T11:15:53.243Z,25.70
2018-04-12T11:16:53.238Z,25.74
2018-04-12T11:17:53.236Z,25.70
2018-04-12T11:18:53.227Z,25.88
2018-04-12T11:19:53.221Z,25.85
2018-04-12T11:20:53.217Z,25.85
2018-04-12T11:21:53.212Z,25.89
2018-04-12T11:22:53.204Z,25.95
2018-04-12T11:23:53.201Z,25.99
2018-04-12T11:24:53.192Z,25.98
2018-04-12T11:25:53.186Z,25.98
2018-04-12T11:26:53.179Z,26.07
2018-04-12T11:27:53.180Z,26.10
2018-04-12T11:28:53.170Z,26.08
2018-04-12T11:29:53.197Z,26.08
2018-04-12T11:30:53.156Z,25.99
2018-04-12T11:31:53.153Z,26.10
2018-04-12T11:32:53.148Z,26.06
2018-04-12T11:33:53.143Z,26.19
2018-04-12T11:34:53.138Z,26.22
2018-04-12T11:35:53.142Z,26.16
2018-04-12T11:36:53.164Z,26.16
2018-04-12T11:37:53.121Z,26.16
2018-04-12T11:38:53.121Z,26.19
2018-04-12T11:39:53.108Z,26.16
2018-04-12T11:40:53.104Z,26.11
2018-04-12T11:41:53.099Z,26.19
2018-04-12T11:42:53.096Z,26.23
2018-04-12T11:43:53.098Z,26.26
2018-04-12T11:44:53.081Z,26.24
2018-04-12T11:45:53.076Z,26.19
2018-04-12T11:46:53.116Z,26.22
2018-04-12T11:47:53.072Z,26.10
2018-04-12T11:48:53.062Z,26.13
2018-04-12T11:49:53.079Z,26.16
2018-04-12T11:50:53.053Z,26.11
2018-04-12T11:51:53.047Z,26.16
2018-04-12T11:52:53.042Z,26.15
2018-04-12T11:53:53.033Z,26.15
2018-04-12T11:54:53.031Z,26.16
2018-04-12T11:55:53.051Z,26.16
2018-04-12T11:56:53.025Z,26.13
2018-04-12T11:57:53.015Z,26.11
2018-04-12T11:58:53.008Z,26.13
2018-04-12T11:59:53.003Z,26.15
2018-04-12T12:00:52.999Z,26.06
2018-04-12T12:01:52.992Z,26.18
2018-04-12T12:02:52.989Z,26.13
2018-04-12T12:03:52.982Z,26.03
2018-04-12T12:04:52.974Z,26.04
2018-04-12T12:05:52.975Z,26.01
2018-04-12T12:06:52.970Z,26.01
2018-04-12T12:07:52.959Z,26.04
2018-04-12T12:08:52.956Z,26.01
2018-04-12T12:09:52.949Z,26.01
2018-04-12T12:10:52.943Z,25.93
2018-04-12T12:11:52.940Z,25.93
2018-04-12T12:12:52.935Z,25.89
2018-04-12T12:13:52.929Z,25.88
2018-04-12T12:14:52.922Z,25.83
2018-04-12T12:15:52.918Z,25.78
2018-04-12T12:16:52.910Z,25.83
2018-04-12T12:17:52.906Z,25.86
2018-04-12T12:18:52.899Z,25.85
2018-04-12T12:19:52.893Z,25.80
2018-04-12T12:20:52.892Z,25.81
2018-04-12T12:21:52.885Z,25.77
2018-04-12T12:22:52.882Z,25.78
2018-04-12T12:23:52.948Z,25.73
2018-04-12T12:24:52.872Z,25.68
2018-04-12T12:25:52.858Z,25.67
2018-04-12T12:26:52.858Z,25.62
2018-04-12T12:27:52.854Z,25.61
2018-04-12T12:28:52.879Z,25.59
2018-04-12T12:29:52.841Z,25.59
2018-04-12T12:30:52.835Z,25.61
2018-04-12T12:31:52.834Z,25.56
2018-04-12T12:32:52.824Z,25.58
2018-04-12T12:33:52.821Z,25.61
2018-04-12T12:34:52.812Z,25.55
2018-04-12T12:35:52.809Z,25.56
2018-04-12T12:36:52.802Z,25.62
2018-04-12T12:37:52.803Z,25.55
2018-04-12T12:38:52.792Z,25.46
2018-04-12T12:39:52.783Z,25.44
2018-04-12T12:40:52.786Z,25.48
2018-04-12T12:41:52.780Z,25.55
2018-04-12T12:42:52.771Z,25.49
2018-04-12T12:43:52.769Z,25.54
2018-04-12T12:44:52.757Z,25.43
2018-04-12T12:45:52.753Z,25.37
2018-04-12T12:46:52.741Z,25.41
2018-04-12T12:47:52.736Z,25.40
2018-04-12T12:48:52.733Z,25.34
2018-04-12T12:49:52.730Z,25.31
2018-04-12T12:50:52.729Z,25.24
2018-04-12T12:51:52.715Z,25.22
2018-04-12T12:52:52.709Z,25.30